sensor_id;sensor_type;location;lat;lon;timestamp;temperature;humidity
6792;DHT22;3433;48.730;9.108;2023-06-26T00:02:24;23.30;64.60
6792;DHT22;3433;48.730;9.108;2023-06-26T00:05:12;23.30;64.30
6792;DHT22;3433;48.730;9.108;2023-06-26T00:08:00;23.30;64.80
6792;DHT22;3433;48.730;9.108;2023-06-26T00:10:47;23.30;65.50
6792;DHT22;3433;48.730;9.108;2023-06-26T00:13:37;23.20;64.20
6792;DHT22;3433;48.730;9.108;2023-06-26T00:16:24;23.20;66.60
6792;DHT22;3433;48.730;9.108;2023-06-26T00:19:11;23.10;66.80
6792;DHT22;3433;48.730;9.108;2023-06-26T00:22:00;23.10;66.00
6792;DHT22;3433;48.730;9.108;2023-06-26T00:24:47;23.00;66.20
6792;DHT22;3433;48.730;9.108;2023-06-26T00:27:35;23.00;65.50
6792;DHT22;3433;48.730;9.108;2023-06-26T00:30:22;22.90;65.40
6792;DHT22;3433;48.730;9.108;2023-06-26T00:33:09;23.00;66.20
6792;DHT22;3433;48.730;9.108;2023-06-26T00:35:56;22.90;67.90
6792;DHT22;3433;48.730;9.108;2023-06-26T00:38:45;22.90;67.80
6792;DHT22;3433;48.730;9.108;2023-06-26T00:41:32;22.90;66.60
6792;DHT22;3433;48.730;9.108;2023-06-26T00:44:19;22.80;68.80
6792;DHT22;3433;48.730;9.108;2023-06-26T00:47:07;22.70;68.50
6792;DHT22;3433;48.730;9.108;2023-06-26T00:49:55;22.80;66.10
6792;DHT22;3433;48.730;9.108;2023-06-26T00:52:43;22.80;66.80
6792;DHT22;3433;48.730;9.108;2023-06-26T00:55:31;22.80;65.90
6792;DHT22;3433;48.730;9.108;2023-06-26T00:58:18;22.70;67.60
6792;DHT22;3433;48.730;9.108;2023-06-26T01:01:06;22.80;65.40
6792;DHT22;3433;48.730;9.108;2023-06-26T01:03:54;22.70;67.70
6792;DHT22;3433;48.730;9.108;2023-06-26T01:06:43;22.70;67.80
6792;DHT22;3433;48.730;9.108;2023-06-26T01:09:34;22.70;68.30
6792;DHT22;3433;48.730;9.108;2023-06-26T01:12:23;22.60;67.10
6792;DHT22;3433;48.730;9.108;2023-06-26T01:15:11;22.60;66.10
6792;DHT22;3433;48.730;9.108;2023-06-26T01:17:58;22.60;67.00
6792;DHT22;3433;48.730;9.108;2023-06-26T01:20:49;22.70;67.50
6792;DHT22;3433;48.730;9.108;2023-06-26T01:23:51;22.60;66.00
6792;DHT22;3433;48.730;9.108;2023-06-26T01:26:44;22.60;67.70
6792;DHT22;3433;48.730;9.108;2023-06-26T01:29:32;22.50;68.20
6792;DHT22;3433;48.730;9.108;2023-06-26T01:32:20;22.40;67.70
6792;DHT22;3433;48.730;9.108;2023-06-26T01:35:08;22.50;66.40
6792;DHT22;3433;48.730;9.108;2023-06-26T01:38:11;22.50;67.40
6792;DHT22;3433;48.730;9.108;2023-06-26T01:40:59;22.40;67.10
6792;DHT22;3433;48.730;9.108;2023-06-26T01:44:01;22.50;66.50
6792;DHT22;3433;48.730;9.108;2023-06-26T01:46:58;22.40;66.20
6792;DHT22;3433;48.730;9.108;2023-06-26T01:49:48;22.50;66.60
6792;DHT22;3433;48.730;9.108;2023-06-26T01:52:40;22.50;66.20
6792;DHT22;3433;48.730;9.108;2023-06-26T01:55:32;22.50;67.00
6792;DHT22;3433;48.730;9.108;2023-06-26T01:58:24;22.50;66.60
6792;DHT22;3433;48.730;9.108;2023-06-26T02:01:13;22.60;66.90
6792;DHT22;3433;48.730;9.108;2023-06-26T02:04:00;22.60;67.90
6792;DHT22;3433;48.730;9.108;2023-06-26T02:06:47;22.60;67.70
6792;DHT22;3433;48.730;9.108;2023-06-26T02:09:35;22.60;66.70
6792;DHT22;3433;48.730;9.108;2023-06-26T02:12:22;22.60;66.50
6792;DHT22;3433;48.730;9.108;2023-06-26T02:15:09;22.60;66.60
6792;DHT22;3433;48.730;9.108;2023-06-26T02:17:58;22.60;66.70
6792;DHT22;3433;48.730;9.108;2023-06-26T02:20:45;22.50;66.30
6792;DHT22;3433;48.730;9.108;2023-06-26T02:23:32;22.60;66.60
6792;DHT22;3433;48.730;9.108;2023-06-26T02:26:19;22.50;66.60
6792;DHT22;3433;48.730;9.108;2023-06-26T02:29:07;22.50;66.60
6792;DHT22;3433;48.730;9.108;2023-06-26T02:31:54;22.50;66.70
6792;DHT22;3433;48.730;9.108;2023-06-26T02:34:43;22.50;67.00
6792;DHT22;3433;48.730;9.108;2023-06-26T02:37:30;22.40;67.40
6792;DHT22;3433;48.730;9.108;2023-06-26T02:40:17;22.40;67.20
6792;DHT22;3433;48.730;9.108;2023-06-26T02:43:04;22.30;67.60
6792;DHT22;3433;48.730;9.108;2023-06-26T02:45:51;22.20;67.20
6792;DHT22;3433;48.730;9.108;2023-06-26T02:48:39;22.10;67.70
6792;DHT22;3433;48.730;9.108;2023-06-26T02:51:27;22.10;67.30
6792;DHT22;3433;48.730;9.108;2023-06-26T02:54:14;22.00;67.80
6792;DHT22;3433;48.730;9.108;2023-06-26T02:57:02;22.00;67.20
6792;DHT22;3433;48.730;9.108;2023-06-26T02:59:49;22.00;70.40
6792;DHT22;3433;48.730;9.108;2023-06-26T03:02:36;22.00;71.10
6792;DHT22;3433;48.730;9.108;2023-06-26T03:05:23;21.90;68.70
6792;DHT22;3433;48.730;9.108;2023-06-26T03:08:12;21.90;68.00
6792;DHT22;3433;48.730;9.108;2023-06-26T03:10:59;21.80;68.40
6792;DHT22;3433;48.730;9.108;2023-06-26T03:13:46;21.90;68.40
6792;DHT22;3433;48.730;9.108;2023-06-26T03:16:34;21.90;68.00
6792;DHT22;3433;48.730;9.108;2023-06-26T03:19:21;21.90;68.10
6792;DHT22;3433;48.730;9.108;2023-06-26T03:22:08;21.90;68.20
6792;DHT22;3433;48.730;9.108;2023-06-26T03:24:57;21.90;68.10
6792;DHT22;3433;48.730;9.108;2023-06-26T03:27:44;21.90;69.20
6792;DHT22;3433;48.730;9.108;2023-06-26T03:30:31;21.90;68.40
6792;DHT22;3433;48.730;9.108;2023-06-26T03:33:18;21.90;68.20
6792;DHT22;3433;48.730;9.108;2023-06-26T03:36:06;21.90;68.40
6792;DHT22;3433;48.730;9.108;2023-06-26T03:38:54;21.90;69.10
6792;DHT22;3433;48.730;9.108;2023-06-26T03:41:44;21.90;69.20
6792;DHT22;3433;48.730;9.108;2023-06-26T03:44:31;21.90;69.20
6792;DHT22;3433;48.730;9.108;2023-06-26T03:47:18;21.90;71.10
6792;DHT22;3433;48.730;9.108;2023-06-26T03:50:06;22.00;69.50
6792;DHT22;3433;48.730;9.108;2023-06-26T03:52:53;22.00;68.80
6792;DHT22;3433;48.730;9.108;2023-06-26T03:55:40;22.00;69.00
6792;DHT22;3433;48.730;9.108;2023-06-26T03:58:29;22.00;69.00
6792;DHT22;3433;48.730;9.108;2023-06-26T04:01:16;22.10;69.40
6792;DHT22;3433;48.730;9.108;2023-06-26T04:04:05;22.10;69.00
6792;DHT22;3433;48.730;9.108;2023-06-26T04:06:53;22.10;68.90
6792;DHT22;3433;48.730;9.108;2023-06-26T04:09:40;22.10;68.70
6792;DHT22;3433;48.730;9.108;2023-06-26T04:12:27;22.20;69.00
6792;DHT22;3433;48.730;9.108;2023-06-26T04:15:16;22.20;69.70
6792;DHT22;3433;48.730;9.108;2023-06-26T04:18:03;22.20;69.30
6792;DHT22;3433;48.730;9.108;2023-06-26T04:21:07;22.30;69.60
6792;DHT22;3433;48.730;9.108;2023-06-26T04:23:55;22.20;69.70
6792;DHT22;3433;48.730;9.108;2023-06-26T04:26:42;22.30;69.30
6792;DHT22;3433;48.730;9.108;2023-06-26T04:29:31;22.30;69.70
6792;DHT22;3433;48.730;9.108;2023-06-26T04:32:20;22.30;69.70
6792;DHT22;3433;48.730;9.108;2023-06-26T04:35:07;22.40;69.80
6792;DHT22;3433;48.730;9.108;2023-06-26T04:37:55;22.40;70.20
6792;DHT22;3433;48.730;9.108;2023-06-26T04:40:43;22.40;70.40
6792;DHT22;3433;48.730;9.108;2023-06-26T04:43:30;22.50;69.70
6792;DHT22;3433;48.730;9.108;2023-06-26T04:46:17;22.50;70.20
6792;DHT22;3433;48.730;9.108;2023-06-26T04:49:06;22.60;70.10
6792;DHT22;3433;48.730;9.108;2023-06-26T04:51:54;22.60;70.60
6792;DHT22;3433;48.730;9.108;2023-06-26T04:54:42;22.80;70.20
6792;DHT22;3433;48.730;9.108;2023-06-26T04:57:29;22.90;70.20
6792;DHT22;3433;48.730;9.108;2023-06-26T05:00:17;22.90;70.30
6792;DHT22;3433;48.730;9.108;2023-06-26T05:03:04;23.00;70.60
6792;DHT22;3433;48.730;9.108;2023-06-26T05:05:53;23.10;70.70
6792;DHT22;3433;48.730;9.108;2023-06-26T05:08:40;23.20;70.50
6792;DHT22;3433;48.730;9.108;2023-06-26T05:11:27;23.30;70.80
6792;DHT22;3433;48.730;9.108;2023-06-26T05:14:14;23.30;70.50
6792;DHT22;3433;48.730;9.108;2023-06-26T05:17:01;23.40;70.20
6792;DHT22;3433;48.730;9.108;2023-06-26T05:19:49;23.50;70.90
6792;DHT22;3433;48.730;9.108;2023-06-26T05:22:37;23.60;70.70
6792;DHT22;3433;48.730;9.108;2023-06-26T05:25:26;23.70;71.80
6792;DHT22;3433;48.730;9.108;2023-06-26T05:28:15;23.80;71.60
6792;DHT22;3433;48.730;9.108;2023-06-26T05:31:03;23.90;71.10
6792;DHT22;3433;48.730;9.108;2023-06-26T05:33:52;24.10;71.50
6792;DHT22;3433;48.730;9.108;2023-06-26T05:36:42;24.20;71.40
6792;DHT22;3433;48.730;9.108;2023-06-26T05:39:31;24.20;71.00
6792;DHT22;3433;48.730;9.108;2023-06-26T05:42:18;24.30;71.40
6792;DHT22;3433;48.730;9.108;2023-06-26T05:45:06;24.30;71.30
6792;DHT22;3433;48.730;9.108;2023-06-26T05:47:54;24.30;71.30
6792;DHT22;3433;48.730;9.108;2023-06-26T05:50:42;24.40;71.60
6792;DHT22;3433;48.730;9.108;2023-06-26T05:53:30;24.50;71.60
6792;DHT22;3433;48.730;9.108;2023-06-26T05:56:19;24.50;71.70
6792;DHT22;3433;48.730;9.108;2023-06-26T05:59:07;24.50;71.80
6792;DHT22;3433;48.730;9.108;2023-06-26T06:01:55;24.60;71.60
6792;DHT22;3433;48.730;9.108;2023-06-26T06:04:42;24.70;71.80
6792;DHT22;3433;48.730;9.108;2023-06-26T06:07:30;24.80;71.50
6792;DHT22;3433;48.730;9.108;2023-06-26T06:10:18;24.90;71.70
6792;DHT22;3433;48.730;9.108;2023-06-26T06:13:06;25.00;71.30
6792;DHT22;3433;48.730;9.108;2023-06-26T06:15:54;25.10;71.70
6792;DHT22;3433;48.730;9.108;2023-06-26T06:18:42;25.20;71.40
6792;DHT22;3433;48.730;9.108;2023-06-26T06:21:29;25.30;71.60
6792;DHT22;3433;48.730;9.108;2023-06-26T06:24:17;25.40;71.30
6792;DHT22;3433;48.730;9.108;2023-06-26T06:27:04;25.50;71.70
6792;DHT22;3433;48.730;9.108;2023-06-26T06:29:53;25.60;71.20
6792;DHT22;3433;48.730;9.108;2023-06-26T06:32:40;25.70;70.90
6792;DHT22;3433;48.730;9.108;2023-06-26T06:35:27;25.80;71.00
6792;DHT22;3433;48.730;9.108;2023-06-26T06:38:14;25.90;70.90
6792;DHT22;3433;48.730;9.108;2023-06-26T06:41:01;26.10;70.80
6792;DHT22;3433;48.730;9.108;2023-06-26T06:43:49;26.10;70.50
6792;DHT22;3433;48.730;9.108;2023-06-26T06:46:37;26.30;70.60
6792;DHT22;3433;48.730;9.108;2023-06-26T06:49:24;26.40;71.00
6792;DHT22;3433;48.730;9.108;2023-06-26T06:52:11;26.50;70.40
6792;DHT22;3433;48.730;9.108;2023-06-26T06:54:59;26.60;70.10
6792;DHT22;3433;48.730;9.108;2023-06-26T06:57:51;26.70;70.50
6792;DHT22;3433;48.730;9.108;2023-06-26T07:00:38;26.80;70.30
6792;DHT22;3433;48.730;9.108;2023-06-26T07:03:26;27.00;70.10
6792;DHT22;3433;48.730;9.108;2023-06-26T07:06:14;27.00;69.70
6792;DHT22;3433;48.730;9.108;2023-06-26T07:09:01;27.10;69.50
6792;DHT22;3433;48.730;9.108;2023-06-26T07:11:49;27.30;70.10
6792;DHT22;3433;48.730;9.108;2023-06-26T07:14:36;27.30;70.10
6792;DHT22;3433;48.730;9.108;2023-06-26T07:17:23;27.40;69.30
6792;DHT22;3433;48.730;9.108;2023-06-26T07:20:12;27.70;69.90
6792;DHT22;3433;48.730;9.108;2023-06-26T07:23:01;27.90;70.00
6792;DHT22;3433;48.730;9.108;2023-06-26T07:25:48;28.20;70.20
6792;DHT22;3433;48.730;9.108;2023-06-26T07:28:35;28.30;69.80
6792;DHT22;3433;48.730;9.108;2023-06-26T07:31:23;28.50;69.70
6792;DHT22;3433;48.730;9.108;2023-06-26T07:34:10;28.60;69.60
6792;DHT22;3433;48.730;9.108;2023-06-26T07:36:58;28.80;69.40
6792;DHT22;3433;48.730;9.108;2023-06-26T07:39:46;28.90;69.40
6792;DHT22;3433;48.730;9.108;2023-06-26T07:42:33;29.10;69.10
6792;DHT22;3433;48.730;9.108;2023-06-26T07:45:20;29.30;69.00
6792;DHT22;3433;48.730;9.108;2023-06-26T07:48:07;29.40;69.20
6792;DHT22;3433;48.730;9.108;2023-06-26T07:50:55;29.60;68.70
6792;DHT22;3433;48.730;9.108;2023-06-26T07:53:44;29.80;68.80
6792;DHT22;3433;48.730;9.108;2023-06-26T07:56:31;29.90;67.50
6792;DHT22;3433;48.730;9.108;2023-06-26T07:59:18;30.10;68.50
6792;DHT22;3433;48.730;9.108;2023-06-26T08:02:07;30.10;67.40
6792;DHT22;3433;48.730;9.108;2023-06-26T08:04:54;30.30;67.40
6792;DHT22;3433;48.730;9.108;2023-06-26T08:07:41;30.30;65.60
6792;DHT22;3433;48.730;9.108;2023-06-26T08:10:30;30.40;64.60
6792;DHT22;3433;48.730;9.108;2023-06-26T08:13:17;30.60;67.00
6792;DHT22;3433;48.730;9.108;2023-06-26T08:16:04;30.80;66.40
6792;DHT22;3433;48.730;9.108;2023-06-26T08:18:52;30.90;65.70
6792;DHT22;3433;48.730;9.108;2023-06-26T08:21:39;31.00;65.00
6792;DHT22;3433;48.730;9.108;2023-06-26T08:24:26;31.10;64.00
6792;DHT22;3433;48.730;9.108;2023-06-26T08:27:15;31.00;64.20
6792;DHT22;3433;48.730;9.108;2023-06-26T08:30:02;31.20;63.80
6792;DHT22;3433;48.730;9.108;2023-06-26T08:32:51;31.30;62.80
6792;DHT22;3433;48.730;9.108;2023-06-26T08:35:38;31.30;63.20
6792;DHT22;3433;48.730;9.108;2023-06-26T08:38:25;31.20;62.80
6792;DHT22;3433;48.730;9.108;2023-06-26T08:41:12;31.20;62.70
6792;DHT22;3433;48.730;9.108;2023-06-26T08:44:04;31.50;62.00
6792;DHT22;3433;48.730;9.108;2023-06-26T08:46:52;31.60;59.60
6792;DHT22;3433;48.730;9.108;2023-06-26T08:49:47;31.50;60.30
6792;DHT22;3433;48.730;9.108;2023-06-26T08:52:43;31.80;61.90
6792;DHT22;3433;48.730;9.108;2023-06-26T08:55:31;32.00;61.10
6792;DHT22;3433;48.730;9.108;2023-06-26T08:58:20;32.10;62.90
6792;DHT22;3433;48.730;9.108;2023-06-26T09:01:09;32.20;60.90
6792;DHT22;3433;48.730;9.108;2023-06-26T09:03:57;32.40;61.10
6792;DHT22;3433;48.730;9.108;2023-06-26T09:06:44;32.40;60.30
6792;DHT22;3433;48.730;9.108;2023-06-26T09:09:32;32.40;61.00
6792;DHT22;3433;48.730;9.108;2023-06-26T09:12:20;32.50;60.70
6792;DHT22;3433;48.730;9.108;2023-06-26T09:15:07;32.20;59.60
6792;DHT22;3433;48.730;9.108;2023-06-26T09:17:57;32.40;59.90
6792;DHT22;3433;48.730;9.108;2023-06-26T09:20:44;32.60;60.90
6792;DHT22;3433;48.730;9.108;2023-06-26T09:23:31;32.90;60.90
6792;DHT22;3433;48.730;9.108;2023-06-26T09:26:19;33.00;60.50
6792;DHT22;3433;48.730;9.108;2023-06-26T09:29:09;32.90;58.00
6792;DHT22;3433;48.730;9.108;2023-06-26T09:31:56;32.80;57.90
6792;DHT22;3433;48.730;9.108;2023-06-26T09:34:45;32.50;59.40
6792;DHT22;3433;48.730;9.108;2023-06-26T09:37:32;32.50;60.20
6792;DHT22;3433;48.730;9.108;2023-06-26T09:40:21;32.30;58.30
6792;DHT22;3433;48.730;9.108;2023-06-26T09:43:12;32.20;59.40
6792;DHT22;3433;48.730;9.108;2023-06-26T09:46:00;32.30;59.50
6792;DHT22;3433;48.730;9.108;2023-06-26T09:48:48;32.20;60.20
6792;DHT22;3433;48.730;9.108;2023-06-26T09:51:38;32.10;59.80
6792;DHT22;3433;48.730;9.108;2023-06-26T09:54:25;32.30;59.80
6792;DHT22;3433;48.730;9.108;2023-06-26T09:57:16;32.50;57.40
6792;DHT22;3433;48.730;9.108;2023-06-26T10:00:05;32.10;58.10
6792;DHT22;3433;48.730;9.108;2023-06-26T10:02:54;32.30;59.70
6792;DHT22;3433;48.730;9.108;2023-06-26T10:05:41;32.20;58.40
6792;DHT22;3433;48.730;9.108;2023-06-26T10:08:32;32.00;58.50
6792;DHT22;3433;48.730;9.108;2023-06-26T10:11:21;32.20;59.40
6792;DHT22;3433;48.730;9.108;2023-06-26T10:14:11;31.90;58.10
6792;DHT22;3433;48.730;9.108;2023-06-26T10:17:00;32.10;59.90
6792;DHT22;3433;48.730;9.108;2023-06-26T10:19:49;31.80;59.70
6792;DHT22;3433;48.730;9.108;2023-06-26T10:22:41;32.10;59.90
6792;DHT22;3433;48.730;9.108;2023-06-26T10:25:31;32.40;58.00
6792;DHT22;3433;48.730;9.108;2023-06-26T10:28:20;31.80;58.20
6792;DHT22;3433;48.730;9.108;2023-06-26T10:31:09;31.80;59.80
6792;DHT22;3433;48.730;9.108;2023-06-26T10:33:57;31.50;59.70
6792;DHT22;3433;48.730;9.108;2023-06-26T10:36:45;31.10;60.60
6792;DHT22;3433;48.730;9.108;2023-06-26T10:39:47;31.10;62.00
6792;DHT22;3433;48.730;9.108;2023-06-26T10:42:38;31.10;62.30
6792;DHT22;3433;48.730;9.108;2023-06-26T10:45:28;31.50;63.10
6792;DHT22;3433;48.730;9.108;2023-06-26T10:48:15;31.90;63.20
6792;DHT22;3433;48.730;9.108;2023-06-26T10:51:13;32.10;62.80
6792;DHT22;3433;48.730;9.108;2023-06-26T10:54:01;32.30;62.70
6792;DHT22;3433;48.730;9.108;2023-06-26T10:56:49;32.50;62.20
6792;DHT22;3433;48.730;9.108;2023-06-26T10:59:39;32.80;62.20
6792;DHT22;3433;48.730;9.108;2023-06-26T11:02:26;32.90;61.70
6792;DHT22;3433;48.730;9.108;2023-06-26T11:05:24;33.00;61.80
6792;DHT22;3433;48.730;9.108;2023-06-26T11:08:12;33.30;61.20
6792;DHT22;3433;48.730;9.108;2023-06-26T11:11:05;33.30;61.30
6792;DHT22;3433;48.730;9.108;2023-06-26T11:13:52;33.60;61.00
6792;DHT22;3433;48.730;9.108;2023-06-26T11:16:42;33.60;60.30
6792;DHT22;3433;48.730;9.108;2023-06-26T11:19:29;33.50;60.80
6792;DHT22;3433;48.730;9.108;2023-06-26T11:22:18;33.50;61.00
6792;DHT22;3433;48.730;9.108;2023-06-26T11:25:07;33.50;60.80
6792;DHT22;3433;48.730;9.108;2023-06-26T11:27:55;33.70;62.30
6792;DHT22;3433;48.730;9.108;2023-06-26T11:30:42;34.10;60.50
6792;DHT22;3433;48.730;9.108;2023-06-26T11:33:30;34.30;61.30
6792;DHT22;3433;48.730;9.108;2023-06-26T11:36:18;34.40;60.40
6792;DHT22;3433;48.730;9.108;2023-06-26T11:39:06;34.50;59.10
6792;DHT22;3433;48.730;9.108;2023-06-26T11:41:53;34.50;59.80
6792;DHT22;3433;48.730;9.108;2023-06-26T11:44:41;34.50;59.60
6792;DHT22;3433;48.730;9.108;2023-06-26T11:47:29;34.60;60.10
6792;DHT22;3433;48.730;9.108;2023-06-26T11:50:18;34.60;59.90
6792;DHT22;3433;48.730;9.108;2023-06-26T11:53:05;34.70;60.60
6792;DHT22;3433;48.730;9.108;2023-06-26T11:55:53;34.90;60.00
6792;DHT22;3433;48.730;9.108;2023-06-26T11:59:00;34.90;59.70
6792;DHT22;3433;48.730;9.108;2023-06-26T12:01:50;34.80;59.40
6792;DHT22;3433;48.730;9.108;2023-06-26T12:04:38;35.10;60.40
6792;DHT22;3433;48.730;9.108;2023-06-26T12:07:27;34.70;61.40
6792;DHT22;3433;48.730;9.108;2023-06-26T12:10:15;34.20;60.80
6792;DHT22;3433;48.730;9.108;2023-06-26T12:13:03;33.80;61.10
6792;DHT22;3433;48.730;9.108;2023-06-26T12:15:50;33.70;62.10
6792;DHT22;3433;48.730;9.108;2023-06-26T12:18:37;33.90;61.60
6792;DHT22;3433;48.730;9.108;2023-06-26T12:21:33;34.10;62.10
6792;DHT22;3433;48.730;9.108;2023-06-26T12:24:23;34.20;62.00
6792;DHT22;3433;48.730;9.108;2023-06-26T12:27:13;34.10;62.60
6792;DHT22;3433;48.730;9.108;2023-06-26T12:30:04;34.30;63.10
6792;DHT22;3433;48.730;9.108;2023-06-26T12:32:51;34.10;63.30
6792;DHT22;3433;48.730;9.108;2023-06-26T12:35:38;33.90;64.00
6792;DHT22;3433;48.730;9.108;2023-06-26T12:38:32;34.10;63.30
6792;DHT22;3433;48.730;9.108;2023-06-26T12:41:24;34.50;64.10
6792;DHT22;3433;48.730;9.108;2023-06-26T12:44:17;34.50;62.20
6792;DHT22;3433;48.730;9.108;2023-06-26T12:47:05;34.50;62.30
6792;DHT22;3433;48.730;9.108;2023-06-26T12:49:54;34.70;62.40
6792;DHT22;3433;48.730;9.108;2023-06-26T12:52:42;34.90;61.80
6792;DHT22;3433;48.730;9.108;2023-06-26T12:55:29;34.90;62.30
6792;DHT22;3433;48.730;9.108;2023-06-26T12:58:17;35.00;61.40
6792;DHT22;3433;48.730;9.108;2023-06-26T13:01:05;35.00;61.30
6792;DHT22;3433;48.730;9.108;2023-06-26T13:04:00;34.80;61.50
6792;DHT22;3433;48.730;9.108;2023-06-26T13:06:47;35.00;62.10
6792;DHT22;3433;48.730;9.108;2023-06-26T13:09:36;35.20;61.90
6792;DHT22;3433;48.730;9.108;2023-06-26T13:12:24;35.30;61.60
6792;DHT22;3433;48.730;9.108;2023-06-26T13:15:12;35.40;61.40
6792;DHT22;3433;48.730;9.108;2023-06-26T13:17:59;35.20;60.80
6792;DHT22;3433;48.730;9.108;2023-06-26T13:20:47;35.20;60.50
6792;DHT22;3433;48.730;9.108;2023-06-26T13:23:34;35.30;61.10
6792;DHT22;3433;48.730;9.108;2023-06-26T13:26:22;35.30;60.20
6792;DHT22;3433;48.730;9.108;2023-06-26T13:29:09;35.00;59.70
6792;DHT22;3433;48.730;9.108;2023-06-26T13:31:58;34.80;59.40
6792;DHT22;3433;48.730;9.108;2023-06-26T13:34:45;34.90;59.80
6792;DHT22;3433;48.730;9.108;2023-06-26T13:37:34;35.00;59.50
6792;DHT22;3433;48.730;9.108;2023-06-26T13:40:22;35.00;59.40
6792;DHT22;3433;48.730;9.108;2023-06-26T13:43:09;34.90;59.90
6792;DHT22;3433;48.730;9.108;2023-06-26T13:45:57;35.00;60.10
6792;DHT22;3433;48.730;9.108;2023-06-26T13:48:46;35.10;59.50
6792;DHT22;3433;48.730;9.108;2023-06-26T13:51:33;35.10;59.40
6792;DHT22;3433;48.730;9.108;2023-06-26T13:54:20;35.10;58.40
6792;DHT22;3433;48.730;9.108;2023-06-26T13:57:08;35.00;58.20
6792;DHT22;3433;48.730;9.108;2023-06-26T13:59:55;35.10;58.40
6792;DHT22;3433;48.730;9.108;2023-06-26T14:02:42;35.10;58.30
6792;DHT22;3433;48.730;9.108;2023-06-26T14:05:31;35.10;58.20
6792;DHT22;3433;48.730;9.108;2023-06-26T14:08:19;35.00;56.30
6792;DHT22;3433;48.730;9.108;2023-06-26T14:11:06;35.00;56.40
6792;DHT22;3433;48.730;9.108;2023-06-26T14:13:53;34.80;57.40
6792;DHT22;3433;48.730;9.108;2023-06-26T14:16:40;34.40;55.40
6792;DHT22;3433;48.730;9.108;2023-06-26T14:19:28;34.50;56.70
6792;DHT22;3433;48.730;9.108;2023-06-26T14:22:16;34.60;56.00
6792;DHT22;3433;48.730;9.108;2023-06-26T14:25:04;34.60;56.20
6792;DHT22;3433;48.730;9.108;2023-06-26T14:27:52;34.60;55.40
6792;DHT22;3433;48.730;9.108;2023-06-26T14:30:39;34.70;55.20
6792;DHT22;3433;48.730;9.108;2023-06-26T14:33:26;34.40;55.20
6792;DHT22;3433;48.730;9.108;2023-06-26T14:36:13;34.40;56.40
6792;DHT22;3433;48.730;9.108;2023-06-26T14:39:02;34.40;55.70
6792;DHT22;3433;48.730;9.108;2023-06-26T14:41:49;34.30;55.70
6792;DHT22;3433;48.730;9.108;2023-06-26T14:44:37;34.30;55.50
6792;DHT22;3433;48.730;9.108;2023-06-26T14:47:24;34.40;56.30
6792;DHT22;3433;48.730;9.108;2023-06-26T14:50:11;34.30;55.20
6792;DHT22;3433;48.730;9.108;2023-06-26T14:52:59;34.50;56.70
6792;DHT22;3433;48.730;9.108;2023-06-26T14:55:47;34.30;55.60
6792;DHT22;3433;48.730;9.108;2023-06-26T14:58:34;34.30;56.10
6792;DHT22;3433;48.730;9.108;2023-06-26T15:01:22;33.80;54.40
6792;DHT22;3433;48.730;9.108;2023-06-26T15:04:09;33.80;56.00
6792;DHT22;3433;48.730;9.108;2023-06-26T15:06:57;33.90;56.50
6792;DHT22;3433;48.730;9.108;2023-06-26T15:09:44;33.70;55.90
6792;DHT22;3433;48.730;9.108;2023-06-26T15:12:33;33.60;56.20
6792;DHT22;3433;48.730;9.108;2023-06-26T15:15:21;33.30;56.50
6792;DHT22;3433;48.730;9.108;2023-06-26T15:18:08;33.50;56.70
6792;DHT22;3433;48.730;9.108;2023-06-26T15:20:55;33.40;56.70
6792;DHT22;3433;48.730;9.108;2023-06-26T15:23:43;33.40;57.10
6792;DHT22;3433;48.730;9.108;2023-06-26T15:26:30;33.10;55.70
6792;DHT22;3433;48.730;9.108;2023-06-26T15:29:18;33.00;56.50
6792;DHT22;3433;48.730;9.108;2023-06-26T15:32:06;33.10;56.90
6792;DHT22;3433;48.730;9.108;2023-06-26T15:34:53;32.90;56.30
6792;DHT22;3433;48.730;9.108;2023-06-26T15:40:09;32.60;56.80
6792;DHT22;3433;48.730;9.108;2023-06-26T15:42:57;32.50;56.60
6792;DHT22;3433;48.730;9.108;2023-06-26T15:45:45;32.00;56.90
6792;DHT22;3433;48.730;9.108;2023-06-26T15:48:33;31.90;56.70
6792;DHT22;3433;48.730;9.108;2023-06-26T15:51:20;31.90;56.70
6792;DHT22;3433;48.730;9.108;2023-06-26T15:54:07;31.90;56.80
6792;DHT22;3433;48.730;9.108;2023-06-26T15:56:54;31.80;57.10
6792;DHT22;3433;48.730;9.108;2023-06-26T15:59:42;31.60;57.30
6792;DHT22;3433;48.730;9.108;2023-06-26T16:02:30;31.40;57.20
6792;DHT22;3433;48.730;9.108;2023-06-26T16:05:17;31.20;57.30
6792;DHT22;3433;48.730;9.108;2023-06-26T16:08:05;31.20;57.50
6792;DHT22;3433;48.730;9.108;2023-06-26T16:10:53;31.00;57.60
6792;DHT22;3433;48.730;9.108;2023-06-26T16:13:40;30.80;57.90
6792;DHT22;3433;48.730;9.108;2023-06-26T16:16:28;30.70;57.80
6792;DHT22;3433;48.730;9.108;2023-06-26T16:19:17;30.40;58.20
6792;DHT22;3433;48.730;9.108;2023-06-26T16:22:05;30.20;58.70
6792;DHT22;3433;48.730;9.108;2023-06-26T16:24:52;30.20;58.40
6792;DHT22;3433;48.730;9.108;2023-06-26T16:27:41;30.10;58.50
6792;DHT22;3433;48.730;9.108;2023-06-26T16:30:29;29.70;58.00
6792;DHT22;3433;48.730;9.108;2023-06-26T16:33:16;29.70;58.20
6792;DHT22;3433;48.730;9.108;2023-06-26T16:36:05;29.20;58.40
6792;DHT22;3433;48.730;9.108;2023-06-26T16:38:52;29.00;58.60
6792;DHT22;3433;48.730;9.108;2023-06-26T16:41:40;29.10;58.40
6792;DHT22;3433;48.730;9.108;2023-06-26T16:44:27;29.20;58.20
6792;DHT22;3433;48.730;9.108;2023-06-26T16:47:14;29.10;58.20
6792;DHT22;3433;48.730;9.108;2023-06-26T16:50:03;29.10;58.30
6792;DHT22;3433;48.730;9.108;2023-06-26T16:52:51;29.30;57.90
6792;DHT22;3433;48.730;9.108;2023-06-26T16:55:39;28.90;57.00
6792;DHT22;3433;48.730;9.108;2023-06-26T16:58:26;28.90;56.90
6792;DHT22;3433;48.730;9.108;2023-06-26T17:01:13;28.90;57.50
6792;DHT22;3433;48.730;9.108;2023-06-26T17:04:00;28.70;57.20
6792;DHT22;3433;48.730;9.108;2023-06-26T17:06:47;28.70;56.60
6792;DHT22;3433;48.730;9.108;2023-06-26T17:09:36;28.40;56.10
6792;DHT22;3433;48.730;9.108;2023-06-26T17:12:23;28.20;56.00
6792;DHT22;3433;48.730;9.108;2023-06-26T17:15:12;28.10;55.90
6792;DHT22;3433;48.730;9.108;2023-06-26T17:17:59;28.00;55.10
6792;DHT22;3433;48.730;9.108;2023-06-26T17:20:46;28.10;55.50
6792;DHT22;3433;48.730;9.108;2023-06-26T17:23:33;28.00;55.40
6792;DHT22;3433;48.730;9.108;2023-06-26T17:26:21;27.80;54.70
6792;DHT22;3433;48.730;9.108;2023-06-26T17:29:09;27.80;54.90
6792;DHT22;3433;48.730;9.108;2023-06-26T17:31:56;27.80;54.50
6792;DHT22;3433;48.730;9.108;2023-06-26T17:34:43;27.70;54.80
6792;DHT22;3433;48.730;9.108;2023-06-26T17:37:30;27.50;54.00
6792;DHT22;3433;48.730;9.108;2023-06-26T17:40:17;27.10;53.40
6792;DHT22;3433;48.730;9.108;2023-06-26T17:43:06;27.10;54.80
6792;DHT22;3433;48.730;9.108;2023-06-26T17:45:53;27.20;54.60
6792;DHT22;3433;48.730;9.108;2023-06-26T17:48:40;27.20;54.20
6792;DHT22;3433;48.730;9.108;2023-06-26T17:51:27;27.20;54.80
6792;DHT22;3433;48.730;9.108;2023-06-26T17:54:14;27.00;54.30
6792;DHT22;3433;48.730;9.108;2023-06-26T17:57:02;27.10;54.70
6792;DHT22;3433;48.730;9.108;2023-06-26T17:59:50;26.60;53.80
6792;DHT22;3433;48.730;9.108;2023-06-26T18:02:38;26.50;54.10
6792;DHT22;3433;48.730;9.108;2023-06-26T18:05:26;26.70;54.80
6792;DHT22;3433;48.730;9.108;2023-06-26T18:08:13;26.70;54.60
6792;DHT22;3433;48.730;9.108;2023-06-26T18:11:00;26.50;54.30
6792;DHT22;3433;48.730;9.108;2023-06-26T18:13:47;26.60;55.30
6792;DHT22;3433;48.730;9.108;2023-06-26T18:16:36;26.50;55.00
6792;DHT22;3433;48.730;9.108;2023-06-26T18:19:23;26.40;54.70
6792;DHT22;3433;48.730;9.108;2023-06-26T18:22:10;26.50;55.90